Portada
METAR-TAF:

METAR-TAF

Aeroports :

Duplin County Airport

Kenansville, Carolina del Nord, Estats Units d'Amèrica

latitud: 35-00-00N, longitud: 077-58-54W, altitud: 42 m

Observació

L'informe es va fer fa 21 minuts, a les 03:15 UTC
Vent calma
Temperatura 24°C
Humitat 94%
Pressió 1014 hPa
Visibilitat: 8.0 km
Núvols disperses a una alçada de 11000 ft
boirina

METAR: KDPL 050315Z AUTO 00000KT 5SM BR SCT110 24/23 A2993 RMK AO2

Hora: 23:36 (03:36 UTC)


TAF: manca

Observacions i pronòstics meteorològics de més de 4000 aeroports (METAR i TAF).

Les estacions disponibles són els punts grocs i vermells al mapa.

Posi el ratolí al punt desitjat per veure el nom de l'estació.

Feu clic per veure les observacions i els pronòstics meteorològics.

Per canviar el mapa: feu clic els botons verds amb una creu de color negre per apropar; al botó verd amb un guió per allunyar la imatge; o en les fletxes verdes per a mapes adjacents.


METAR-TAF: